Time;durP1;ratioP1;P1;durP2;ratioP2;P2;SDS_P1;SDS_P2;PMS_P1;PMS_P2;Temp;Humidity;BMP_temperature;BMP_pressure;BME280_temperature;BME280_humidity;BME280_pressure;Samples;Min_cycle;Max_cycle;Signal;HPM_P1;HPM_P2
2022/03/06 00:01:38;;;;;;;;;;;1.80;99.90;;;;;;6109835;23;19992;-88
2022/03/06 00:04:06;;;;;;;;;;;3.90;99.90;;;;;;6108529;23;19929;-88
2022/03/06 00:06:33;;;;;;;;;;;3.90;99.90;;;;;;6109020;23;19921;-87
2022/03/06 00:09:00;;;;;;;;;;;4.40;99.90;;;;;;6108888;23;19921;-88
2022/03/06 00:11:27;;;;;;;;;;;3.80;99.90;;;;;;6108923;23;19969;-88
2022/03/06 00:13:54;;;;;;;;;;;4.60;99.90;;;;;;6108933;23;20317;-90
2022/03/06 00:16:21;;;;;;;;;;;3.70;99.90;;;;;;6109426;23;19956;-89
2022/03/06 00:18:49;;;;;;;;;;;3.60;99.90;;;;;;6110028;23;19922;-87
2022/03/06 00:21:16;;;;;;;;;;;3.90;99.90;;;;;;6110241;23;19925;-88
2022/03/06 00:23:43;;;;;;;;;;;4.60;99.90;;;;;;6109454;23;19925;-88
2022/03/06 00:26:10;;;;;;;;;;;3.60;99.90;;;;;;6109139;23;19925;-89
2022/03/06 00:28:37;;;;;;;;;;;4.10;99.90;;;;;;6109702;23;19921;-89
2022/03/06 00:31:04;;;;;;;;;;;3.70;99.90;;;;;;6109046;23;19927;-89
2022/03/06 00:33:30;;;;;;;;;;;3.50;99.90;;;;;;6108389;23;19922;-89
2022/03/06 00:35:59;;;;;;;;;;;4.80;99.90;;;;;;6108728;23;19978;-88
2022/03/06 00:38:26;;;;;;;;;;;3.60;99.90;;;;;;6108674;23;19929;-88
2022/03/06 00:40:53;;;;;;;;;;;3.90;99.90;;;;;;6109380;23;19921;-89
2022/03/06 00:43:19;;;;;;;;;;;4.10;99.90;;;;;;6108835;23;19945;-89
2022/03/06 00:45:46;;;;;;;;;;;3.50;99.90;;;;;;6109621;23;19925;-88
2022/03/06 00:48:13;;;;;;;;;;;3.50;99.90;;;;;;6108986;23;19943;-91
2022/03/06 00:50:40;;;;;;;;;;;4.60;99.90;;;;;;6109246;23;19925;-90
2022/03/06 00:53:09;;;;;;;;;;;3.50;99.90;;;;;;6109285;23;20345;-88
2022/03/06 00:55:36;;;;;;;;;;;3.50;99.90;;;;;;6110028;23;19946;-89
2022/03/06 00:58:05;;;;;;;;;;;4.20;99.90;;;;;;6110217;23;19921;-89
2022/03/06 01:00:35;;;;;;;;;;;4.10;99.90;;;;;;6109703;23;19925;-89
2022/03/06 01:03:02;;;;;;;;;;;3.60;99.90;;;;;;6109565;23;19925;-89
2022/03/06 01:05:29;;;;;;;;;;;4.70;99.90;;;;;;6109365;23;19925;-89
2022/03/06 01:07:56;;;;;;;;;;;4.40;99.90;;;;;;6110258;23;19949;-91
2022/03/06 01:10:25;;;;;;;;;;;3.20;99.90;;;;;;6109567;23;19921;-90
2022/03/06 01:12:53;;;;;;;;;;;3.80;99.90;;;;;;6110366;23;19922;-91
2022/03/06 01:15:20;;;;;;;;;;;4.40;99.90;;;;;;6109540;23;19969;-88
2022/03/06 01:17:46;;;;;;;;;;;4.00;99.90;;;;;;6110077;23;19929;-91
2022/03/06 01:20:14;;;;;;;;;;;3.60;99.90;;;;;;6109804;23;19998;-88
2022/03/06 01:22:41;;;;;;;;;;;3.80;99.90;;;;;;6110253;23;19928;-88
2022/03/06 01:25:11;;;;;;;;;;;4.00;99.90;;;;;;6084016;23;20300;-88
2022/03/06 01:27:39;;;;;;;;;;;3.50;99.90;;;;;;6110481;23;19921;-87
2022/03/06 01:30:08;;;;;;;;;;;4.20;99.90;;;;;;6110149;23;19928;-88
2022/03/06 01:32:35;;;;;;;;;;;3.60;99.90;;;;;;6109858;23;19921;-88
2022/03/06 01:35:02;;;;;;;;;;;4.60;99.90;;;;;;6110159;23;19929;-88
2022/03/06 01:37:31;;;;;;;;;;;4.10;99.90;;;;;;6111511;23;19921;-88
2022/03/06 01:39:59;;;;;;;;;;;3.80;99.90;;;;;;6110246;23;19921;-89
2022/03/06 01:42:26;;;;;;;;;;;4.00;99.90;;;;;;6108310;23;19922;-88
2022/03/06 01:44:54;;;;;;;;;;;4.10;99.90;;;;;;6107918;23;20413;-88
2022/03/06 01:47:34;;;;;;;;;;;4.30;99.90;;;;;;6107756;23;19925;-89
2022/03/06 01:50:01;;;;;;;;;;;4.60;99.90;;;;;;6108111;23;19925;-88
2022/03/06 01:52:28;;;;;;;;;;;4.40;99.90;;;;;;6108936;23;20405;-90
2022/03/06 01:54:55;;;;;;;;;;;4.90;99.90;;;;;;6109263;23;19921;-87
2022/03/06 01:57:23;;;;;;;;;;;5.20;99.90;;;;;;6109893;23;19969;-89
2022/03/06 01:59:51;;;;;;;;;;;4.30;99.90;;;;;;6110005;23;19922;-87
2022/03/06 02:02:20;;;;;;;;;;;4.30;99.90;;;;;;6109332;23;19945;-88
2022/03/06 02:04:48;;;;;;;;;;;4.60;99.90;;;;;;6109027;23;19922;-88
2022/03/06 02:07:15;;;;;;;;;;;4.30;99.90;;;;;;6097607;23;19921;-88
2022/03/06 02:09:42;;;;;;;;;;;4.40;99.90;;;;;;6109094;23;19921;-87
2022/03/06 02:12:24;;;;;;;;;;;4.50;99.90;;;;;;6109665;23;20302;-88
2022/03/06 02:14:53;;;;;;;;;;;4.30;99.90;;;;;;6109045;23;19968;-87
2022/03/06 02:17:21;;;;;;;;;;;4.30;99.90;;;;;;6109467;23;20341;-89
2022/03/06 02:19:51;;;;;;;;;;;4.40;99.90;;;;;;6108964;23;20234;-87
2022/03/06 02:22:23;;;;;;;;;;;4.30;99.90;;;;;;6109265;23;19947;-89
2022/03/06 02:24:49;;;;;;;;;;;3.80;99.90;;;;;;6109213;23;19921;-89
2022/03/06 02:27:17;;;;;;;;;;;4.20;99.90;;;;;;6109071;23;19996;-90
2022/03/06 02:29:44;;;;;;;;;;;4.80;99.90;;;;;;6108656;23;20292;-89
2022/03/06 02:32:12;;;;;;;;;;;4.50;99.90;;;;;;6108438;23;19932;-87
2022/03/06 02:34:40;;;;;;;;;;;4.60;99.90;;;;;;6108588;23;19925;-87
2022/03/06 02:37:08;;;;;;;;;;;4.00;99.90;;;;;;6108541;23;20346;-87
2022/03/06 02:39:39;;;;;;;;;;;4.50;99.90;;;;;;6108314;23;19922;-88
2022/03/06 02:42:06;;;;;;;;;;;2.60;99.90;;;;;;6107869;23;19921;-90
2022/03/06 02:44:33;;;;;;;;;;;4.10;99.90;;;;;;6108557;23;19921;-90
2022/03/06 02:47:00;;;;;;;;;;;4.00;99.90;;;;;;6109304;23;19922;-86
2022/03/06 02:49:27;;;;;;;;;;;4.20;99.90;;;;;;6110392;23;19977;-89
2022/03/06 02:51:54;;;;;;;;;;;4.30;99.90;;;;;;6108999;23;20337;-87
2022/03/06 02:54:24;;;;;;;;;;;4.10;99.90;;;;;;6108888;23;19921;-88
2022/03/06 02:56:52;;;;;;;;;;;4.60;99.90;;;;;;6108303;23;19921;-87
2022/03/06 02:59:23;;;;;;;;;;;4.60;99.90;;;;;;6108479;23;19921;-89
2022/03/06 03:01:51;;;;;;;;;;;4.10;99.90;;;;;;6107999;23;20234;-89
2022/03/06 03:04:18;;;;;;;;;;;4.50;99.90;;;;;;6107636;23;19922;-89
2022/03/06 03:06:50;;;;;;;;;;;2.50;99.90;;;;;;6107997;23;19921;-89
2022/03/06 03:09:19;;;;;;;;;;;4.70;99.90;;;;;;6108413;23;19925;-88
2022/03/06 03:11:54;;;;;;;;;;;4.10;99.90;;;;;;6107591;23;19943;-87
2022/03/06 03:14:24;;;;;;;;;;;4.20;99.90;;;;;;6107448;23;19928;-89
2022/03/06 03:16:51;;;;;;;;;;;4.10;99.90;;;;;;6107366;23;19921;-90
2022/03/06 03:19:18;;;;;;;;;;;4.20;99.90;;;;;;6107475;23;19921;-88
2022/03/06 03:21:45;;;;;;;;;;;5.00;99.90;;;;;;6107274;23;19921;-89
2022/03/06 03:24:12;;;;;;;;;;;4.10;99.90;;;;;;6108292;23;19921;-88
2022/03/06 03:26:39;;;;;;;;;;;4.40;99.90;;;;;;6107226;23;19978;-89
2022/03/06 03:29:08;;;;;;;;;;;4.40;99.90;;;;;;6107193;23;19921;-87
2022/03/06 03:31:35;;;;;;;;;;;4.70;99.90;;;;;;6106947;23;19925;-88
2022/03/06 03:34:02;;;;;;;;;;;4.30;99.90;;;;;;6107206;23;19921;-88
2022/03/06 03:36:29;;;;;;;;;;;4.30;99.90;;;;;;6106561;23;19941;-89
2022/03/06 03:38:56;;;;;;;;;;;4.30;99.90;;;;;;6106276;23;20341;-88
2022/03/06 03:41:24;;;;;;;;;;;4.40;99.90;;;;;;6107233;23;19945;-87
2022/03/06 03:43:52;;;;;;;;;;;4.40;99.90;;;;;;6107776;23;19921;-89
2022/03/06 03:46:21;;;;;;;;;;;4.30;99.90;;;;;;6106587;23;20333;-88
2022/03/06 03:48:48;;;;;;;;;;;4.90;99.90;;;;;;6106343;23;19953;-90
2022/03/06 03:51:18;;;;;;;;;;;4.60;99.90;;;;;;6107993;23;19929;-86
2022/03/06 03:53:45;;;;;;;;;;;2.70;99.90;;;;;;6108410;23;19921;-89
2022/03/06 03:56:14;;;;;;;;;;;4.60;99.90;;;;;;6106892;23;19925;-90
2022/03/06 03:58:41;;;;;;;;;;;4.50;99.90;;;;;;6107351;23;19929;-86
2022/03/06 04:01:08;;;;;;;;;;;4.40;99.90;;;;;;6108513;23;19964;-87
2022/03/06 04:03:36;;;;;;;;;;;5.00;99.90;;;;;;6107977;23;19945;-88
2022/03/06 04:06:03;;;;;;;;;;;4.30;99.90;;;;;;6107764;23;19925;-88
2022/03/06 04:08:31;;;;;;;;;;;4.00;99.90;;;;;;6108735;23;20301;-89
2022/03/06 04:10:59;;;;;;;;;;;4.80;99.90;;;;;;6109424;23;19925;-88
2022/03/06 04:13:26;;;;;;;;;;;3.90;99.90;;;;;;6078784;23;19945;-89
2022/03/06 04:15:54;;;;;;;;;;;3.20;99.90;;;;;;6105253;23;19921;-88
2022/03/06 04:18:21;;;;;;;;;;;4.00;99.90;;;;;;6108988;23;19922;-89
2022/03/06 04:20:53;;;;;;;;;;;4.20;99.90;;;;;;6108372;23;19961;-89
2022/03/06 04:23:20;;;;;;;;;;;3.50;99.90;;;;;;6108443;23;19921;-89
2022/03/06 04:25:47;;;;;;;;;;;3.80;99.90;;;;;;6108776;23;19921;-88
2022/03/06 04:28:15;;;;;;;;;;;4.00;99.90;;;;;;6108322;23;19928;-89
2022/03/06 04:30:42;;;;;;;;;;;3.40;99.90;;;;;;6108462;23;19928;-89
2022/03/06 04:33:09;;;;;;;;;;;4.40;99.90;;;;;;6108479;23;19925;-88
2022/03/06 04:35:36;;;;;;;;;;;4.50;99.90;;;;;;6109203;23;20301;-88
2022/03/06 04:38:05;;;;;;;;;;;4.30;99.90;;;;;;6108128;23;19921;-89
2022/03/06 04:40:32;;;;;;;;;;;3.60;99.90;;;;;;6108723;23;19922;-90
2022/03/06 04:42:58;;;;;;;;;;;3.30;99.90;;;;;;6108013;23;19929;-89
2022/03/06 04:45:26;;;;;;;;;;;3.20;99.90;;;;;;6108964;23;19921;-88
2022/03/06 04:47:53;;;;;;;;;;;3.20;99.90;;;;;;6108972;23;19921;-89
2022/03/06 04:50:20;;;;;;;;;;;3.00;99.90;;;;;;6108647;23;19932;-87
2022/03/06 04:52:47;;;;;;;;;;;3.20;99.90;;;;;;6108437;23;19921;-87
2022/03/06 04:55:15;;;;;;;;;;;3.70;99.90;;;;;;6108834;23;19952;-89
2022/03/06 04:57:46;;;;;;;;;;;4.00;99.90;;;;;;6108320;23;19928;-88
2022/03/06 05:00:14;;;;;;;;;;;2.90;99.90;;;;;;6107619;23;19941;-88
2022/03/06 05:02:41;;;;;;;;;;;2.80;99.90;;;;;;6106930;23;19953;-87
2022/03/06 05:05:09;;;;;;;;;;;4.20;99.90;;;;;;6107946;23;20384;-88
2022/03/06 05:07:36;;;;;;;;;;;2.80;99.90;;;;;;6107537;23;19928;-88
2022/03/06 05:10:08;;;;;;;;;;;4.00;99.90;;;;;;6108858;23;19922;-88
2022/03/06 05:12:36;;;;;;;;;;;2.70;99.90;;;;;;6110139;23;19921;-88
2022/03/06 05:15:04;;;;;;;;;;;2.50;99.90;;;;;;6109484;23;19984;-86
2022/03/06 05:17:30;;;;;;;;;;;2.60;99.90;;;;;;6109588;23;19921;-88
2022/03/06 05:19:57;;;;;;;;;;;2.60;99.90;;;;;;6109447;23;19921;-87
2022/03/06 05:22:24;;;;;;;;;;;2.60;99.90;;;;;;6109990;23;19982;-88
2022/03/06 05:24:51;;;;;;;;;;;3.30;99.90;;;;;;6110002;23;20289;-88
2022/03/06 05:27:18;;;;;;;;;;;3.40;99.90;;;;;;6109342;23;19988;-87
2022/03/06 05:29:46;;;;;;;;;;;2.80;99.90;;;;;;6108917;23;19954;-89
2022/03/06 05:32:13;;;;;;;;;;;2.60;99.90;;;;;;6109155;23;19976;-87
2022/03/06 05:34:40;;;;;;;;;;;2.70;99.90;;;;;;6109614;23;19925;-89
2022/03/06 05:37:07;;;;;;;;;;;2.70;99.90;;;;;;6109688;23;19921;-89
2022/03/06 05:39:36;;;;;;;;;;;2.60;99.90;;;;;;6109466;23;19928;-89
2022/03/06 05:42:05;;;;;;;;;;;2.60;99.90;;;;;;6110488;23;19921;-88
2022/03/06 05:44:32;;;;;;;;;;;3.40;99.90;;;;;;6109584;23;19929;-88
2022/03/06 05:47:00;;;;;;;;;;;2.80;99.90;;;;;;6109946;23;20009;-88
2022/03/06 05:49:27;;;;;;;;;;;4.10;99.90;;;;;;6109277;23;20302;-87
2022/03/06 05:51:54;;;;;;;;;;;3.00;99.90;;;;;;6108702;23;19984;-87
2022/03/06 05:54:21;;;;;;;;;;;3.40;99.90;;;;;;6077334;23;19977;-87
2022/03/06 05:56:48;;;;;;;;;;;3.10;99.90;;;;;;6103003;23;19921;-87
2022/03/06 05:59:15;;;;;;;;;;;3.20;99.90;;;;;;6108672;23;19976;-88
2022/03/06 06:01:43;;;;;;;;;;;4.90;99.90;;;;;;6108702;23;19922;-87
2022/03/06 06:04:12;;;;;;;;;;;3.60;99.90;;;;;;6108114;23;20264;-88
2022/03/06 06:06:39;;;;;;;;;;;3.70;99.90;;;;;;6108371;23;19921;-89
2022/03/06 06:09:06;;;;;;;;;;;3.30;99.90;;;;;;6108274;23;19936;-88
2022/03/06 06:11:34;;;;;;;;;;;3.30;99.90;;;;;;6109302;23;19921;-89
2022/03/06 06:14:01;;;;;;;;;;;3.30;99.90;;;;;;6109785;23;20329;-89
2022/03/06 06:16:28;;;;;;;;;;;3.40;99.90;;;;;;6108292;23;19928;-87
2022/03/06 06:18:57;;;;;;;;;;;4.20;99.90;;;;;;6108791;23;19921;-87
2022/03/06 06:21:25;;;;;;;;;;;3.30;99.90;;;;;;6108546;23;19922;-89
2022/03/06 06:23:53;;;;;;;;;;;3.70;99.90;;;;;;6108908;23;19922;-87
2022/03/06 06:26:20;;;;;;;;;;;4.00;99.90;;;;;;6109431;23;19932;-88
2022/03/06 06:28:52;;;;;;;;;;;3.40;99.90;;;;;;6109367;23;19921;-88
2022/03/06 06:31:19;;;;;;;;;;;3.40;99.90;;;;;;6110120;23;20086;-87
2022/03/06 06:33:46;;;;;;;;;;;3.40;99.90;;;;;;6109879;23;19921;-88
2022/03/06 06:36:16;;;;;;;;;;;3.30;99.90;;;;;;6109177;23;19921;-87
2022/03/06 06:38:45;;;;;;;;;;;3.60;99.90;;;;;;6079294;23;19956;-86
2022/03/06 06:41:12;;;;;;;;;;;3.40;99.90;;;;;;6108218;23;19922;-88
2022/03/06 06:43:39;;;;;;;;;;;3.30;99.90;;;;;;6108337;23;19922;-87
2022/03/06 06:46:06;;;;;;;;;;;3.20;99.90;;;;;;6107240;23;20294;-86
2022/03/06 06:48:33;;;;;;;;;;;3.20;99.90;;;;;;6107742;23;19976;-88
2022/03/06 06:51:00;;;;;;;;;;;3.20;99.90;;;;;;6107735;23;19925;-87
2022/03/06 06:53:26;;;;;;;;;;;3.20;99.90;;;;;;6107110;23;20384;-87
2022/03/06 06:55:55;;;;;;;;;;;3.20;99.90;;;;;;6106726;23;19946;-88
2022/03/06 06:58:21;;;;;;;;;;;3.10;99.90;;;;;;6106815;23;19928;-88
2022/03/06 07:00:48;;;;;;;;;;;3.10;99.90;;;;;;6107051;23;19921;-88
2022/03/06 07:03:15;;;;;;;;;;;3.20;99.90;;;;;;6106091;23;19987;-87
2022/03/06 07:05:44;;;;;;;;;;;3.00;99.90;;;;;;6106551;23;19925;-88
2022/03/06 07:08:11;;;;;;;;;;;3.70;99.90;;;;;;6109052;23;19928;-86
2022/03/06 07:10:38;;;;;;;;;;;3.70;99.90;;;;;;6111822;23;19946;-88
2022/03/06 07:13:07;;;;;;;;;;;2.80;99.90;;;;;;6112390;23;20309;-87
2022/03/06 07:15:34;;;;;;;;;;;4.00;99.90;;;;;;6112089;23;19921;-88
2022/03/06 07:18:01;;;;;;;;;;;3.00;99.90;;;;;;6112377;23;20349;-87
2022/03/06 07:20:29;;;;;;;;;;;3.00;99.90;;;;;;6111770;23;19928;-87
2022/03/06 07:22:56;;;;;;;;;;;3.10;99.90;;;;;;6112601;23;19996;-86
2022/03/06 07:25:23;;;;;;;;;;;3.00;99.90;;;;;;6081998;23;19922;-87
2022/03/06 07:27:51;;;;;;;;;;;2.00;99.90;;;;;;6107212;23;19925;-86
2022/03/06 07:30:19;;;;;;;;;;;3.30;99.90;;;;;;6112719;23;19921;-87
2022/03/06 07:32:47;;;;;;;;;;;3.10;99.90;;;;;;6112503;23;19949;-87
2022/03/06 07:35:14;;;;;;;;;;;3.10;99.90;;;;;;6113708;23;20238;-88
2022/03/06 07:37:41;;;;;;;;;;;4.30;99.90;;;;;;6113460;23;19958;-87
2022/03/06 07:40:09;;;;;;;;;;;3.10;99.90;;;;;;6111848;23;19921;-88
2022/03/06 07:42:36;;;;;;;;;;;3.50;99.90;;;;;;6109150;23;19921;-88
2022/03/06 07:45:04;;;;;;;;;;;3.10;99.90;;;;;;6108946;23;19921;-88
2022/03/06 07:47:32;;;;;;;;;;;4.20;99.90;;;;;;6109036;23;19922;-89
2022/03/06 07:49:59;;;;;;;;;;;3.00;99.90;;;;;;6109688;23;19921;-87
2022/03/06 07:52:26;;;;;;;;;;;3.40;99.90;;;;;;6108858;23;19925;-88
2022/03/06 07:54:53;;;;;;;;;;;3.10;99.90;;;;;;6108808;23;19921;-88
2022/03/06 07:57:21;;;;;;;;;;;3.00;99.90;;;;;;6108852;23;19921;-89
2022/03/06 07:59:47;;;;;;;;;;;3.10;99.90;;;;;;6109127;23;19927;-87
2022/03/06 08:02:16;;;;;;;;;;;3.60;99.90;;;;;;6108343;23;19949;-88
2022/03/06 08:04:45;;;;;;;;;;;3.30;99.90;;;;;;6108818;23;19921;-87
2022/03/06 08:07:12;;;;;;;;;;;3.40;99.90;;;;;;6108091;23;19926;-89
2022/03/06 08:09:39;;;;;;;;;;;3.70;99.90;;;;;;6107059;23;19928;-90
2022/03/06 08:12:06;;;;;;;;;;;3.00;99.90;;;;;;6108636;23;19931;-88
2022/03/06 08:14:37;;;;;;;;;;;3.80;99.90;;;;;;6077813;23;21537;-88
2022/03/06 08:17:05;;;;;;;;;;;5.00;99.90;;;;;;6081286;23;20356;-88
2022/03/06 08:19:32;;;;;;;;;;;4.00;99.90;;;;;;6108838;23;19977;-90
2022/03/06 08:22:03;;;;;;;;;;;4.10;99.90;;;;;;6109554;23;19922;-88
2022/03/06 08:24:31;;;;;;;;;;;4.10;99.90;;;;;;6108812;23;19922;-87
2022/03/06 08:26:58;;;;;;;;;;;4.50;99.90;;;;;;6109073;23;19925;-88
2022/03/06 08:29:26;;;;;;;;;;;4.40;99.90;;;;;;6108973;23;19923;-89
2022/03/06 08:31:52;;;;;;;;;;;4.20;99.90;;;;;;6108679;23;19944;-88
2022/03/06 08:34:19;;;;;;;;;;;4.20;99.90;;;;;;6108403;23;19985;-89
2022/03/06 08:36:46;;;;;;;;;;;4.20;99.90;;;;;;6108083;23;19921;-88
2022/03/06 08:39:14;;;;;;;;;;;4.80;99.90;;;;;;6107577;23;19976;-89
2022/03/06 08:41:42;;;;;;;;;;;4.30;99.90;;;;;;6108074;23;19932;-88
2022/03/06 08:44:09;;;;;;;;;;;4.90;99.90;;;;;;6108556;23;20380;-89
2022/03/06 08:46:36;;;;;;;;;;;5.50;99.90;;;;;;6109892;23;19922;-87
2022/03/06 08:49:03;;;;;;;;;;;4.70;99.90;;;;;;6108994;23;19945;-88
2022/03/06 08:51:30;;;;;;;;;;;5.30;99.90;;;;;;6109300;23;19921;-89
2022/03/06 08:53:57;;;;;;;;;;;3.90;99.90;;;;;;6109467;23;20024;-87
2022/03/06 08:56:26;;;;;;;;;;;5.20;99.90;;;;;;6108853;23;19979;-89
2022/03/06 08:58:53;;;;;;;;;;;5.10;99.90;;;;;;6109522;23;19929;-90
2022/03/06 09:01:19;;;;;;;;;;;5.30;99.90;;;;;;6109545;23;19927;-89
2022/03/06 09:03:46;;;;;;;;;;;4.60;99.90;;;;;;6108235;23;19925;-88
2022/03/06 09:06:13;;;;;;;;;;;5.30;99.90;;;;;;6109493;23;19928;-89
2022/03/06 09:08:40;;;;;;;;;;;5.40;99.90;;;;;;6108555;23;19921;-90
2022/03/06 09:11:07;;;;;;;;;;;5.40;99.90;;;;;;6108162;23;20325;-89
2022/03/06 09:13:36;;;;;;;;;;;5.40;99.90;;;;;;6108243;23;20290;-89
2022/03/06 09:16:03;;;;;;;;;;;5.40;99.90;;;;;;6108729;23;19954;-89
2022/03/06 09:18:30;;;;;;;;;;;4.80;99.90;;;;;;6108484;23;19921;-89
2022/03/06 09:20:57;;;;;;;;;;;5.60;99.90;;;;;;6107563;23;19922;-87
2022/03/06 09:23:25;;;;;;;;;;;5.70;99.90;;;;;;6108207;23;19921;-88
2022/03/06 09:25:52;;;;;;;;;;;5.80;99.90;;;;;;6109302;23;19947;-88
2022/03/06 09:28:18;;;;;;;;;;;6.00;99.90;;;;;;6108861;23;19931;-89
2022/03/06 09:30:49;;;;;;;;;;;7.10;99.90;;;;;;6107882;23;20355;-88
2022/03/06 09:33:16;;;;;;;;;;;5.80;99.90;;;;;;6097115;23;19933;-86
2022/03/06 09:35:43;;;;;;;;;;;6.00;99.90;;;;;;6107990;23;19977;-89
2022/03/06 09:38:09;;;;;;;;;;;6.00;99.90;;;;;;6108534;23;20256;-87
2022/03/06 09:40:37;;;;;;;;;;;6.10;99.90;;;;;;6109212;23;19921;-89
2022/03/06 09:43:09;;;;;;;;;;;6.10;99.90;;;;;;6108468;23;19921;-89
2022/03/06 09:45:40;;;;;;;;;;;4.30;99.90;;;;;;6107215;23;19928;-88
2022/03/06 09:48:09;;;;;;;;;;;6.00;99.90;;;;;;6107855;23;19927;-89
2022/03/06 09:50:36;;;;;;;;;;;6.30;99.90;;;;;;6107940;23;19957;-90
2022/03/06 09:53:04;;;;;;;;;;;6.50;99.90;;;;;;6107525;23;19943;-87
2022/03/06 09:55:32;;;;;;;;;;;6.90;99.90;;;;;;6106227;23;20337;-88
2022/03/06 09:57:59;;;;;;;;;;;6.60;99.90;;;;;;6106192;23;19928;-90
2022/03/06 10:00:26;;;;;;;;;;;7.00;99.90;;;;;;6105348;23;19925;-89
2022/03/06 10:02:59;;;;;;;;;;;6.60;99.90;;;;;;6106530;23;19927;-88
2022/03/06 10:05:29;;;;;;;;;;;6.70;99.90;;;;;;6107011;23;19972;-87
2022/03/06 10:08:15;;;;;;;;;;;6.80;99.90;;;;;;6109330;23;19992;-89
2022/03/06 10:10:42;;;;;;;;;;;6.90;99.90;;;;;;6106963;23;20060;-91
2022/03/06 10:13:09;;;;;;;;;;;7.50;99.90;;;;;;6109302;23;19957;-89
2022/03/06 10:15:56;;;;;;;;;;;7.10;99.90;;;;;;6108070;23;19921;-88
2022/03/06 10:18:23;;;;;;;;;;;7.20;99.90;;;;;;6097428;23;19972;-89
2022/03/06 10:20:53;;;;;;;;;;;7.20;99.90;;;;;;6107495;23;19921;-88
2022/03/06 10:23:24;;;;;;;;;;;7.00;99.90;;;;;;6107477;23;19921;-91
2022/03/06 10:26:00;;;;;;;;;;;6.90;99.90;;;;;;6107539;23;20022;-90
2022/03/06 10:28:26;;;;;;;;;;;6.60;99.90;;;;;;6108071;23;19932;-89
2022/03/06 10:30:55;;;;;;;;;;;7.10;99.90;;;;;;6107800;23;19925;-90
2022/03/06 10:33:23;;;;;;;;;;;7.50;99.90;;;;;;6107515;23;19932;-90
2022/03/06 10:36:02;;;;;;;;;;;7.30;99.90;;;;;;6107930;23;20001;-87
2022/03/06 10:38:29;;;;;;;;;;;7.50;99.90;;;;;;6106390;23;19921;-88
2022/03/06 10:40:57;;;;;;;;;;;7.10;99.90;;;;;;6107942;23;20012;-90
2022/03/06 10:43:27;;;;;;;;;;;7.70;99.90;;;;;;6108095;23;19929;-90
2022/03/06 10:46:06;;;;;;;;;;;7.40;99.90;;;;;;6105815;23;19929;-89
2022/03/06 10:48:34;;;;;;;;;;;7.60;99.90;;;;;;6106414;23;19928;-89
2022/03/06 10:51:03;;;;;;;;;;;7.30;99.90;;;;;;6104541;23;19945;-90
2022/03/06 10:53:30;;;;;;;;;;;7.40;99.90;;;;;;6108467;23;19921;-90
2022/03/06 10:56:05;;;;;;;;;;;7.30;99.90;;;;;;6078985;23;19922;-88
2022/03/06 10:58:35;;;;;;;;;;;7.30;99.90;;;;;;6102079;23;19925;-89
2022/03/06 11:01:04;;;;;;;;;;;7.30;99.90;;;;;;6108144;23;19921;-87
2022/03/06 11:03:32;;;;;;;;;;;7.80;99.90;;;;;;6132420;23;19948;-90
2022/03/06 11:06:01;;;;;;;;;;;7.60;99.90;;;;;;6110360;23;20409;-91
2022/03/06 11:08:29;;;;;;;;;;;7.60;99.90;;;;;;6132437;23;19925;-84
2022/03/06 11:10:56;;;;;;;;;;;7.50;99.90;;;;;;6126783;23;19921;-86
2022/03/06 11:13:24;;;;;;;;;;;7.60;99.90;;;;;;6126685;23;19931;-84
2022/03/06 11:15:53;;;;;;;;;;;7.60;99.90;;;;;;6133180;23;19925;-86
2022/03/06 11:18:20;;;;;;;;;;;7.70;99.90;;;;;;6134961;23;19921;-86
2022/03/06 11:20:48;;;;;;;;;;;7.70;99.90;;;;;;6137891;23;19925;-88
2022/03/06 11:23:21;;;;;;;;;;;7.90;99.90;;;;;;6121972;23;19995;-87
2022/03/06 11:25:57;;;;;;;;;;;8.00;99.90;;;;;;6136168;23;19921;-87
2022/03/06 11:28:30;;;;;;;;;;;8.20;99.90;;;;;;6135550;23;20272;-88
2022/03/06 11:31:06;;;;;;;;;;;8.10;99.90;;;;;;6130307;23;19985;-89
2022/03/06 11:33:34;;;;;;;;;;;7.60;99.90;;;;;;6134218;23;19932;-89
2022/03/06 11:36:17;;;;;;;;;;;8.70;99.90;;;;;;6135731;23;19943;-87
2022/03/06 11:38:48;;;;;;;;;;;8.20;99.90;;;;;;6136581;23;19952;-86
2022/03/06 11:41:19;;;;;;;;;;;9.00;99.90;;;;;;6140486;23;19921;-86
2022/03/06 11:43:48;;;;;;;;;;;9.70;99.90;;;;;;6137823;23;19931;-90
2022/03/06 11:46:17;;;;;;;;;;;8.60;99.90;;;;;;6136318;23;19925;-88
2022/03/06 11:49:11;;;;;;;;;;;8.90;99.90;;;;;;6136987;23;19931;-89
2022/03/06 11:51:41;;;;;;;;;;;8.80;99.90;;;;;;6128922;23;20023;-89
2022/03/06 11:54:09;;;;;;;;;;;8.70;99.90;;;;;;6131759;23;19921;-88
2022/03/06 11:56:46;;;;;;;;;;;9.10;99.90;;;;;;6128948;23;19992;-88
2022/03/06 11:59:30;;;;;;;;;;;8.90;99.90;;;;;;6129133;23;19925;-89
2022/03/06 12:01:58;;;;;;;;;;;8.70;99.90;;;;;;6128531;23;19996;-88
2022/03/06 12:04:26;;;;;;;;;;;8.50;99.90;;;;;;6128346;23;20383;-89
2022/03/06 12:06:53;;;;;;;;;;;8.50;99.90;;;;;;6128212;23;19928;-88
2022/03/06 12:09:22;;;;;;;;;;;8.30;99.90;;;;;;6129235;23;19984;-88
2022/03/06 12:11:51;;;;;;;;;;;8.20;99.90;;;;;;6130059;23;20001;-88
2022/03/06 12:14:19;;;;;;;;;;;8.90;99.90;;;;;;6127916;23;19921;-88
2022/03/06 12:17:04;;;;;;;;;;;8.80;99.90;;;;;;6129728;23;19992;-89
2022/03/06 12:19:32;;;;;;;;;;;8.90;99.90;;;;;;6128244;23;19921;-88
2022/03/06 12:22:08;;;;;;;;;;;8.60;99.90;;;;;;6127783;23;19964;-88
2022/03/06 12:24:35;;;;;;;;;;;8.50;99.90;;;;;;6128722;23;19972;-88
2022/03/06 12:27:10;;;;;;;;;;;8.50;99.90;;;;;;6129284;23;19921;-88
2022/03/06 12:29:57;;;;;;;;;;;9.20;99.90;;;;;;6127837;23;19925;-89
2022/03/06 12:32:33;;;;;;;;;;;9.70;99.90;;;;;;6129139;23;19932;-88
2022/03/06 12:35:00;;;;;;;;;;;8.90;99.90;;;;;;6129275;23;19921;-89
2022/03/06 12:37:29;;;;;;;;;;;8.90;99.90;;;;;;6128914;23;19925;-86
2022/03/06 12:39:56;;;;;;;;;;;8.90;99.90;;;;;;6128602;23;19925;-90
2022/03/06 12:42:25;;;;;;;;;;;9.10;99.90;;;;;;6127884;23;19921;-89
2022/03/06 12:44:54;;;;;;;;;;;9.60;99.50;;;;;;6128657;23;19921;-88
2022/03/06 12:47:22;;;;;;;;;;;9.00;99.50;;;;;;6128489;23;19921;-88
2022/03/06 12:49:49;;;;;;;;;;;9.00;99.90;;;;;;6128697;23;19924;-89
2022/03/06 12:52:17;;;;;;;;;;;10.10;99.90;;;;;;6128301;23;20345;-88
2022/03/06 12:54:48;;;;;;;;;;;8.90;99.90;;;;;;6128123;23;19992;-88
2022/03/06 12:57:15;;;;;;;;;;;9.20;99.60;;;;;;6127584;23;19921;-88
2022/03/06 12:59:46;;;;;;;;;;;8.90;99.50;;;;;;6128304;23;19927;-88
2022/03/06 13:02:13;;;;;;;;;;;9.40;98.90;;;;;;6128278;23;20024;-89
2022/03/06 13:04:40;;;;;;;;;;;9.20;97.90;;;;;;6128838;23;19921;-88
2022/03/06 13:07:07;;;;;;;;;;;9.40;97.10;;;;;;6128154;23;20008;-87
2022/03/06 13:09:36;;;;;;;;;;;7.50;96.00;;;;;;6129631;23;19925;-89
2022/03/06 13:12:05;;;;;;;;;;;9.30;96.90;;;;;;6127819;23;19920;-88
2022/03/06 13:14:34;;;;;;;;;;;9.60;96.50;;;;;;6127039;23;19928;-88
2022/03/06 13:17:04;;;;;;;;;;;9.20;96.70;;;;;;6129617;23;19927;-89
2022/03/06 13:19:41;;;;;;;;;;;9.30;97.40;;;;;;6128818;23;20324;-88
2022/03/06 13:22:08;;;;;;;;;;;9.40;97.40;;;;;;6128742;23;19925;-90
2022/03/06 13:24:42;;;;;;;;;;;9.40;97.00;;;;;;6129422;23;20383;-89
2022/03/06 13:27:09;;;;;;;;;;;8.30;96.70;;;;;;6127816;23;19921;-88
2022/03/06 13:29:36;;;;;;;;;;;9.20;96.80;;;;;;6128871;23;19921;-89
2022/03/06 13:32:05;;;;;;;;;;;9.20;97.70;;;;;;6130595;23;19920;-89
2022/03/06 13:34:42;;;;;;;;;;;9.80;96.50;;;;;;6130297;23;19928;-89
2022/03/06 13:37:09;;;;;;;;;;;9.30;96.20;;;;;;6128300;23;19921;-87
2022/03/06 13:39:37;;;;;;;;;;;9.30;97.10;;;;;;6130389;23;20264;-87
2022/03/06 13:42:04;;;;;;;;;;;8.80;96.50;;;;;;6132878;23;19921;-88
2022/03/06 13:44:32;;;;;;;;;;;9.10;96.20;;;;;;6134803;23;19925;-90
2022/03/06 13:47:10;;;;;;;;;;;9.70;98.00;;;;;;6134982;23;19927;-88
2022/03/06 13:49:37;;;;;;;;;;;9.50;96.80;;;;;;6133448;23;19921;-89
2022/03/06 13:52:05;;;;;;;;;;;9.90;97.40;;;;;;6133012;23;19977;-90
2022/03/06 13:54:33;;;;;;;;;;;10.10;96.80;;;;;;6134435;23;19925;-90
2022/03/06 13:57:00;;;;;;;;;;;10.10;95.90;;;;;;6132082;23;20308;-87
2022/03/06 13:59:29;;;;;;;;;;;10.60;96.20;;;;;;6135063;23;19976;-88
2022/03/06 14:02:04;;;;;;;;;;;9.80;95.90;;;;;;6133402;23;19929;-89
2022/03/06 14:04:32;;;;;;;;;;;9.70;94.50;;;;;;6132725;23;20355;-88
2022/03/06 14:07:03;;;;;;;;;;;9.80;95.60;;;;;;6132505;23;19921;-90
2022/03/06 14:09:31;;;;;;;;;;;10.10;95.80;;;;;;6132975;23;19928;-88
2022/03/06 14:12:11;;;;;;;;;;;10.20;96.20;;;;;;6135219;23;19927;-87
2022/03/06 14:14:39;;;;;;;;;;;10.70;96.40;;;;;;6134399;23;19927;-88
2022/03/06 14:17:07;;;;;;;;;;;10.40;98.20;;;;;;6130767;23;19980;-89
2022/03/06 14:19:35;;;;;;;;;;;10.00;98.30;;;;;;6131269;23;19927;-88
2022/03/06 14:22:03;;;;;;;;;;;10.40;98.20;;;;;;6130619;23;19921;-88
2022/03/06 14:24:30;;;;;;;;;;;10.40;99.30;;;;;;6132386;23;19924;-89
2022/03/06 14:26:57;;;;;;;;;;;10.10;99.90;;;;;;6133928;23;19921;-87
2022/03/06 14:29:26;;;;;;;;;;;9.80;99.50;;;;;;6131961;23;19927;-88
2022/03/06 14:31:54;;;;;;;;;;;9.60;99.30;;;;;;6132914;23;19921;-88
2022/03/06 14:34:22;;;;;;;;;;;10.00;98.60;;;;;;6132860;23;19921;-89
2022/03/06 14:36:50;;;;;;;;;;;9.40;99.20;;;;;;6131285;23;19984;-88